createdAt,value
2019-02-04T00:00:45.068Z,1018.15
2019-02-04T00:01:45.017Z,1018.10
2019-02-04T00:02:44.966Z,1018.12
2019-02-04T00:03:44.916Z,1018.09
2019-02-04T00:04:44.865Z,1018.14
2019-02-04T00:05:44.817Z,1018.12
2019-02-04T00:06:44.764Z,1018.16
2019-02-04T00:07:44.713Z,1018.14
2019-02-04T00:08:44.665Z,1018.13
2019-02-04T00:09:44.612Z,1018.18
2019-02-04T00:10:44.560Z,1018.18
2019-02-04T00:11:44.512Z,1018.20
2019-02-04T00:12:44.461Z,1018.25
2019-02-04T00:13:44.410Z,1018.21
2019-02-04T00:14:44.359Z,1018.21
2019-02-04T00:15:44.403Z,1018.18
2019-02-04T00:16:44.258Z,1018.18
2019-02-04T00:17:44.208Z,1018.21
2019-02-04T00:18:44.156Z,1018.21
2019-02-04T00:19:44.161Z,1018.25
2019-02-04T00:20:44.106Z,1018.25
2019-02-04T00:21:44.105Z,1018.25
2019-02-04T00:22:44.106Z,1018.27
2019-02-04T00:23:43.904Z,1018.29
2019-02-04T00:24:43.859Z,1018.30
2019-02-04T00:25:43.804Z,1018.27
2019-02-04T00:26:51.272Z,1018.33
2019-02-04T00:27:43.701Z,1018.31
2019-02-04T00:28:43.651Z,1018.31
2019-02-04T00:29:43.600Z,1018.32
2019-02-04T00:30:43.549Z,1018.32
2019-02-04T00:31:43.505Z,1018.33
2019-02-04T00:32:43.449Z,1018.32
2019-02-04T00:33:43.397Z,1018.37
2019-02-04T00:34:43.352Z,1018.30
2019-02-04T00:35:43.296Z,1018.36
2019-02-04T00:36:43.246Z,1018.36
2019-02-04T00:37:43.195Z,1018.42
2019-02-04T00:38:43.147Z,1018.42
2019-02-04T00:39:43.095Z,1018.46
2019-02-04T00:40:43.142Z,1018.54
2019-02-04T00:41:42.994Z,1018.51
2019-02-04T00:42:43.044Z,1018.53
2019-02-04T00:43:42.892Z,1018.52
2019-02-04T00:44:42.841Z,1018.52
2019-02-04T00:45:42.790Z,1018.56
2019-02-04T00:46:51.978Z,1018.58
2019-02-04T00:47:42.689Z,1018.58
2019-02-04T00:48:42.638Z,1018.64
2019-02-04T00:49:42.588Z,1018.62
2019-02-04T00:50:42.537Z,1018.65
2019-02-04T00:51:42.486Z,1018.65
2019-02-04T00:52:42.436Z,1018.69
2019-02-04T00:53:42.388Z,1018.69
2019-02-04T00:54:42.334Z,1018.71
2019-02-04T00:55:42.284Z,1018.74
2019-02-04T00:56:42.234Z,1018.75
2019-02-04T00:57:42.183Z,1018.75
2019-02-04T00:58:42.131Z,1018.75
2019-02-04T00:59:42.081Z,1018.83
2019-02-04T01:00:42.132Z,1018.83
2019-02-04T01:01:42.081Z,1018.83
2019-02-04T01:02:41.979Z,1018.85
2019-02-04T01:03:41.878Z,1018.88
2019-02-04T01:04:41.838Z,1018.88
2019-02-04T01:05:41.779Z,1018.89
2019-02-04T01:06:42.378Z,1018.89
2019-02-04T01:07:41.676Z,1018.96
2019-02-04T01:08:41.628Z,1018.94
2019-02-04T01:09:41.581Z,1018.96
2019-02-04T01:10:41.523Z,1019.03
2019-02-04T01:11:41.473Z,1018.98
2019-02-04T01:12:41.423Z,1019.05
2019-02-04T01:13:41.374Z,1019.01
2019-02-04T01:14:41.321Z,1019.06
2019-02-04T01:15:41.270Z,1019.01
2019-02-04T01:16:41.220Z,1019.02
2019-02-04T01:17:41.170Z,1019.03
2019-02-04T01:18:41.117Z,1019.02
2019-02-04T01:19:41.068Z,1019.03
2019-02-04T01:20:41.017Z,1019.02
2019-02-04T01:21:40.970Z,1019.05
2019-02-04T01:22:40.965Z,1019.07
2019-02-04T01:23:40.866Z,1019.10
2019-02-04T01:24:40.814Z,1019.06
2019-02-04T01:25:40.764Z,1019.04
2019-02-04T01:26:40.712Z,1019.10
2019-02-04T01:27:40.663Z,1019.12
2019-02-04T01:28:40.612Z,1019.09
2019-02-04T01:29:40.562Z,1019.12
2019-02-04T01:30:40.510Z,1019.15
2019-02-04T01:31:40.459Z,1019.21
2019-02-04T01:32:40.409Z,1019.21
2019-02-04T01:33:40.359Z,1019.22
2019-02-04T01:34:40.308Z,1019.27
2019-02-04T01:35:40.257Z,1019.29
2019-02-04T01:36:40.207Z,1019.29
2019-02-04T01:37:40.160Z,1019.34
2019-02-04T01:38:40.105Z,1019.34
2019-02-04T01:39:40.056Z,1019.35
2019-02-04T01:40:40.004Z,1019.39
2019-02-04T01:41:40.004Z,1019.42
2019-02-04T01:42:39.917Z,1019.40
2019-02-04T01:43:39.852Z,1019.42
2019-02-04T01:44:39.802Z,1019.41
2019-02-04T01:45:39.752Z,1019.43
2019-02-04T01:46:39.700Z,1019.44
2019-02-04T01:47:39.650Z,1019.47
2019-02-04T01:48:39.600Z,1019.49
2019-02-04T01:49:39.599Z,1019.48
2019-02-04T01:50:39.498Z,1019.51
2019-02-04T01:51:39.446Z,1019.52
2019-02-04T01:52:39.397Z,1019.57
2019-02-04T01:53:39.359Z,1019.56
2019-02-04T01:54:39.295Z,1019.56
2019-02-04T01:55:39.245Z,1019.53
2019-02-04T01:56:39.194Z,1019.57
2019-02-04T01:57:39.146Z,1019.58
2019-02-04T01:58:39.092Z,1019.63
2019-02-04T01:59:39.042Z,1019.62
2019-02-04T02:00:38.992Z,1019.65
2019-02-04T02:01:38.941Z,1019.65
2019-02-04T02:02:38.890Z,1019.69
2019-02-04T02:03:38.840Z,1019.66
2019-02-04T02:04:38.788Z,1019.69
2019-02-04T02:05:38.739Z,1019.70
2019-02-04T02:06:38.687Z,1019.65
2019-02-04T02:07:38.637Z,1019.68
2019-02-04T02:08:38.587Z,1019.68
2019-02-04T02:09:38.536Z,1019.68
2019-02-04T02:10:38.485Z,1019.68
2019-02-04T02:11:38.434Z,1019.68
2019-02-04T02:12:38.384Z,1019.68
2019-02-04T02:13:38.332Z,1019.69
2019-02-04T02:14:38.282Z,1019.71
2019-02-04T02:15:38.232Z,1019.72
2019-02-04T02:16:38.181Z,1019.69
2019-02-04T02:17:38.131Z,1019.71
2019-02-04T02:18:38.081Z,1019.73
2019-02-04T02:19:38.029Z,1019.74
2019-02-04T02:20:37.979Z,1019.75
2019-02-04T02:21:38.029Z,1019.80
2019-02-04T02:22:37.877Z,1019.81
2019-02-04T02:23:37.871Z,1019.83
2019-02-04T02:24:38.093Z,1019.83
2019-02-04T02:25:37.728Z,1019.81
2019-02-04T02:26:37.674Z,1019.83
2019-02-04T02:27:37.624Z,1019.82
2019-02-04T02:28:37.574Z,1019.82
2019-02-04T02:29:37.525Z,1019.85
2019-02-04T02:30:37.472Z,1019.86
2019-02-04T02:31:37.420Z,1019.84
2019-02-04T02:32:37.372Z,1019.86
2019-02-04T02:33:37.333Z,1019.89
2019-02-04T02:34:37.267Z,1019.88
2019-02-04T02:35:37.216Z,1019.90
2019-02-04T02:36:37.168Z,1019.93
2019-02-04T02:37:37.118Z,1019.94
2019-02-04T02:38:37.064Z,1019.98
2019-02-04T02:39:37.016Z,1019.97
2019-02-04T02:40:37.016Z,1020.02
2019-02-04T02:41:36.915Z,1020.04
2019-02-04T02:42:36.861Z,1020.07
2019-02-04T02:43:36.812Z,1020.08
2019-02-04T02:44:36.763Z,1020.07
2019-02-04T02:45:36.711Z,1020.09
2019-02-04T02:46:36.660Z,1020.09
2019-02-04T02:47:38.464Z,1020.11
2019-02-04T02:48:36.559Z,1020.12
2019-02-04T02:49:36.511Z,1020.13
2019-02-04T02:50:36.457Z,1020.07
2019-02-04T02:51:36.415Z,1020.11
2019-02-04T02:52:36.356Z,1020.14
2019-02-04T02:53:36.315Z,1020.21
2019-02-04T02:54:36.254Z,1020.17
2019-02-04T02:55:36.204Z,1020.21
2019-02-04T02:56:36.153Z,1020.24
2019-02-04T02:57:36.103Z,1020.24
2019-02-04T02:58:36.051Z,1020.29
2019-02-04T02:59:36.001Z,1020.31
2019-02-04T03:00:36.001Z,1020.35
2019-02-04T03:01:35.903Z,1020.34
2019-02-04T03:02:35.850Z,1020.37
2019-02-04T03:03:35.820Z,1020.40
2019-02-04T03:04:35.748Z,1020.42
2019-02-04T03:05:35.697Z,1020.40
2019-02-04T03:06:35.645Z,1020.39
2019-02-04T03:07:35.596Z,1020.44
2019-02-04T03:08:35.545Z,1020.43
2019-02-04T03:09:35.495Z,1020.43
2019-02-04T03:10:35.447Z,1020.49
2019-02-04T03:11:35.393Z,1020.48
2019-02-04T03:12:35.343Z,1020.51
2019-02-04T03:13:35.294Z,1020.50
2019-02-04T03:14:35.240Z,1020.56
2019-02-04T03:15:35.190Z,1020.57
2019-02-04T03:16:35.140Z,1020.58
2019-02-04T03:17:35.093Z,1020.61
2019-02-04T03:18:35.038Z,1020.62
2019-02-04T03:19:35.043Z,1020.61
2019-02-04T03:20:34.937Z,1020.59
2019-02-04T03:21:34.937Z,1020.65
2019-02-04T03:22:34.835Z,1020.69
2019-02-04T03:23:34.784Z,1020.70
2019-02-04T03:24:34.736Z,1020.70
2019-02-04T03:25:34.684Z,1020.68
2019-02-04T03:26:34.633Z,1020.70
2019-02-04T03:27:34.584Z,1020.69
2019-02-04T03:28:34.531Z,1020.72
2019-02-04T03:29:34.481Z,1020.73
2019-02-04T03:30:34.434Z,1020.75
2019-02-04T03:31:34.380Z,1020.76
2019-02-04T03:32:34.336Z,1020.77
2019-02-04T03:33:34.279Z,1020.80
2019-02-04T03:34:34.226Z,1020.80
2019-02-04T03:35:34.175Z,1020.82
2019-02-04T03:36:34.126Z,1020.87
2019-02-04T03:37:34.078Z,1020.84
2019-02-04T03:38:34.024Z,1020.87
2019-02-04T03:39:34.036Z,1020.88
2019-02-04T03:40:33.974Z,1020.88
2019-02-04T03:41:33.878Z,1020.88
2019-02-04T03:42:33.821Z,1020.95
2019-02-04T03:43:33.777Z,1020.94
2019-02-04T03:44:33.725Z,1020.94
2019-02-04T03:45:33.669Z,1020.92
2019-02-04T03:46:33.635Z,1020.93
2019-02-04T03:47:33.567Z,1020.95
2019-02-04T03:48:33.517Z,1020.99
2019-02-04T03:49:33.467Z,1021.02
2019-02-04T03:50:33.416Z,1021.05
2019-02-04T03:51:33.365Z,1021.04
2019-02-04T03:52:33.315Z,1021.06
2019-02-04T03:53:33.264Z,1021.08
2019-02-04T03:54:33.213Z,1021.08
2019-02-04T03:55:33.245Z,1021.11
2019-02-04T03:56:33.112Z,1021.12
2019-02-04T03:57:33.061Z,1021.12
2019-02-04T03:58:33.010Z,1021.15
2019-02-04T03:59:32.959Z,1021.13
2019-02-04T04:00:32.909Z,1021.12
2019-02-04T04:01:32.861Z,1021.13
2019-02-04T04:02:32.807Z,1021.14
2019-02-04T04:03:32.755Z,1021.11
2019-02-04T04:04:32.706Z,1021.12
2019-02-04T04:05:32.655Z,1021.13
2019-02-04T04:06:32.604Z,1021.14
2019-02-04T04:07:32.554Z,1021.16
2019-02-04T04:08:32.507Z,1021.17
2019-02-04T04:09:32.453Z,1021.18
2019-02-04T04:10:32.402Z,1021.21
2019-02-04T04:11:32.352Z,1021.21
2019-02-04T04:12:32.423Z,1021.24
2019-02-04T04:13:32.251Z,1021.24
2019-02-04T04:14:32.199Z,1021.25
2019-02-04T04:15:32.148Z,1021.26
2019-02-04T04:16:32.098Z,1021.27
2019-02-04T04:17:32.048Z,1021.27
2019-02-04T04:18:31.996Z,1021.28
2019-02-04T04:19:32.011Z,1021.36
2019-02-04T04:20:31.898Z,1021.34
2019-02-04T04:21:31.845Z,1021.38
2019-02-04T04:22:31.793Z,1021.41
2019-02-04T04:23:31.743Z,1021.39
2019-02-04T04:24:31.695Z,1021.41
2019-02-04T04:25:31.642Z,1021.45
2019-02-04T04:26:31.589Z,1021.46
2019-02-04T04:27:31.540Z,1021.46
2019-02-04T04:28:31.490Z,1021.49
2019-02-04T04:29:31.440Z,1021.50
2019-02-04T04:30:31.388Z,1021.50
2019-02-04T04:31:31.337Z,1021.52
2019-02-04T04:32:31.293Z,1021.52
2019-02-04T04:33:31.249Z,1021.52
2019-02-04T04:34:31.185Z,1021.54
2019-02-04T04:35:31.134Z,1021.53
2019-02-04T04:36:31.084Z,1021.58
2019-02-04T04:37:31.035Z,1021.62
2019-02-04T04:38:30.982Z,1021.65
2019-02-04T04:39:30.931Z,1021.63
2019-02-04T04:40:30.881Z,1021.67
2019-02-04T04:41:30.832Z,1021.67
2019-02-04T04:42:30.779Z,1021.69
2019-02-04T04:43:30.728Z,1021.67
2019-02-04T04:44:30.690Z,1021.67
2019-02-04T04:45:30.627Z,1021.70
2019-02-04T04:46:30.576Z,1021.68
2019-02-04T04:47:30.526Z,1021.72
2019-02-04T04:48:30.475Z,1021.72
2019-02-04T04:49:30.425Z,1021.71
2019-02-04T04:50:30.374Z,1021.72
2019-02-04T04:51:30.323Z,1021.72
2019-02-04T04:52:30.271Z,1021.70
2019-02-04T04:53:30.222Z,1021.71
2019-02-04T04:54:30.171Z,1021.78
2019-02-04T04:55:30.122Z,1021.75
2019-02-04T04:56:30.075Z,1021.77
2019-02-04T04:57:30.028Z,1021.72
2019-02-04T04:58:29.968Z,1021.75
2019-02-04T04:59:29.916Z,1021.75
2019-02-04T05:00:29.869Z,1021.76
2019-02-04T05:01:29.816Z,1021.73
2019-02-04T05:02:29.764Z,1021.74
2019-02-04T05:03:29.714Z,1021.76
2019-02-04T05:04:29.663Z,1021.78
2019-02-04T05:05:29.611Z,1021.76
2019-02-04T05:06:29.561Z,1021.75
2019-02-04T05:07:29.511Z,1021.77
2019-02-04T05:08:29.463Z,1021.76
2019-02-04T05:09:29.410Z,1021.74
2019-02-04T05:10:29.358Z,1021.72
2019-02-04T05:11:29.308Z,1021.75
2019-02-04T05:12:29.258Z,1021.76
2019-02-04T05:13:29.209Z,1021.79
2019-02-04T05:14:29.155Z,1021.78
2019-02-04T05:15:29.105Z,1021.78
2019-02-04T05:16:29.054Z,1021.81
2019-02-04T05:17:29.004Z,1021.82
2019-02-04T05:18:37.865Z,1021.81
2019-02-04T05:19:28.903Z,1021.81
2019-02-04T05:20:28.852Z,1021.81
2019-02-04T05:21:28.801Z,1021.82
2019-02-04T05:22:28.750Z,1021.79
2019-02-04T05:23:28.699Z,1021.81
2019-02-04T05:24:28.649Z,1021.86
2019-02-04T05:25:28.597Z,1021.83
2019-02-04T05:26:28.546Z,1021.85
2019-02-04T05:27:28.496Z,1021.86
2019-02-04T05:28:28.445Z,1021.89
2019-02-04T05:29:28.395Z,1021.88
2019-02-04T05:30:28.344Z,1021.90
2019-02-04T05:31:28.293Z,1021.92
2019-02-04T05:32:28.242Z,1021.93
2019-02-04T05:33:28.192Z,1021.95
2019-02-04T05:34:28.141Z,1021.97
2019-02-04T05:35:28.090Z,1021.97
2019-02-04T05:36:28.040Z,1022.01
2019-02-04T05:37:27.989Z,1022.03
2019-02-04T05:38:27.938Z,1022.06
2019-02-04T05:39:27.889Z,1022.05
2019-02-04T05:40:27.837Z,1022.07
2019-02-04T05:41:27.787Z,1022.08
2019-02-04T05:42:27.736Z,1022.08
2019-02-04T05:43:27.694Z,1022.10
2019-02-04T05:44:27.634Z,1022.11
2019-02-04T05:45:27.583Z,1022.12
2019-02-04T05:46:27.533Z,1022.13
2019-02-04T05:47:27.482Z,1022.14
2019-02-04T05:48:27.482Z,1022.17
2019-02-04T05:49:27.381Z,1022.16
2019-02-04T05:50:27.329Z,1022.14
2019-02-04T05:51:27.279Z,1022.20
2019-02-04T05:52:27.228Z,1022.18
2019-02-04T05:53:27.179Z,1022.19
2019-02-04T05:54:27.126Z,1022.15
2019-02-04T05:55:27.076Z,1022.18
2019-02-04T05:56:27.024Z,1022.19
2019-02-04T05:57:27.025Z,1022.17
2019-02-04T05:58:26.975Z,1022.22
2019-02-04T05:59:26.873Z,1022.19
2019-02-04T06:00:26.825Z,1022.19
2019-02-04T06:01:26.772Z,1022.20
2019-02-04T06:02:26.721Z,1022.20
2019-02-04T06:03:26.670Z,1022.20
2019-02-04T06:04:26.619Z,1022.23
2019-02-04T06:05:26.571Z,1022.24
2019-02-04T06:06:26.518Z,1022.28
2019-02-04T06:07:26.467Z,1022.28
2019-02-04T06:08:26.417Z,1022.30
2019-02-04T06:09:26.366Z,1022.28
2019-02-04T06:10:26.315Z,1022.30
2019-02-04T06:11:26.264Z,1022.36
2019-02-04T06:12:26.214Z,1022.35
2019-02-04T06:13:26.165Z,1022.34
2019-02-04T06:14:26.112Z,1022.36
2019-02-04T06:15:26.063Z,1022.36
2019-02-04T06:16:26.011Z,1022.42
2019-02-04T06:17:25.961Z,1022.43
2019-02-04T06:18:25.910Z,1022.44
2019-02-04T06:19:25.859Z,1022.43
2019-02-04T06:20:25.819Z,1022.47
2019-02-04T06:21:25.759Z,1022.44
2019-02-04T06:22:25.707Z,1022.44
2019-02-04T06:23:25.659Z,1022.47
2019-02-04T06:24:25.606Z,1022.49
2019-02-04T06:25:25.558Z,1022.49
2019-02-04T06:26:25.521Z,1022.55
2019-02-04T06:27:25.453Z,1022.53
2019-02-04T06:28:25.403Z,1022.54
2019-02-04T06:29:25.352Z,1022.56
2019-02-04T06:30:25.301Z,1022.59
2019-02-04T06:31:25.250Z,1022.59
2019-02-04T06:32:25.206Z,1022.58
2019-02-04T06:33:25.148Z,1022.63
2019-02-04T06:34:25.102Z,1022.62
2019-02-04T06:35:25.047Z,1022.64
2019-02-04T06:36:24.996Z,1022.65
2019-02-04T06:37:25.046Z,1022.64
2019-02-04T06:38:24.945Z,1022.65
2019-02-04T06:39:24.844Z,1022.66
2019-02-04T06:40:24.793Z,1022.69
2019-02-04T06:41:24.743Z,1022.68
2019-02-04T06:42:24.692Z,1022.69
2019-02-04T06:43:24.641Z,1022.70
2019-02-04T06:44:24.591Z,1022.70
2019-02-04T06:45:24.541Z,1022.67
2019-02-04T06:46:24.489Z,1022.70
2019-02-04T06:47:24.440Z,1022.74
2019-02-04T06:48:24.438Z,1022.73
2019-02-04T06:49:24.338Z,1022.75
2019-02-04T06:50:24.285Z,1022.77
2019-02-04T06:51:24.235Z,1022.76
2019-02-04T06:52:24.185Z,1022.79
2019-02-04T06:53:24.139Z,1022.80
2019-02-04T06:54:24.083Z,1022.81
2019-02-04T06:55:24.161Z,1022.82
2019-02-04T06:56:23.982Z,1022.84
2019-02-04T06:57:23.982Z,1022.83
2019-02-04T06:58:23.885Z,1022.85
2019-02-04T06:59:23.830Z,1022.85
2019-02-04T07:00:23.779Z,1022.88
2019-02-04T07:01:23.730Z,1022.86
2019-02-04T07:02:23.678Z,1022.87
2019-02-04T07:03:23.628Z,1022.88
2019-02-04T07:04:23.577Z,1022.91
2019-02-04T07:05:23.527Z,1022.91
2019-02-04T07:06:23.475Z,1022.91
2019-02-04T07:07:23.424Z,1022.91
2019-02-04T07:08:23.375Z,1022.91
2019-02-04T07:09:23.324Z,1022.93
2019-02-04T07:10:23.273Z,1022.97
2019-02-04T07:11:23.223Z,1022.97
2019-02-04T07:12:23.175Z,1022.98
2019-02-04T07:13:23.120Z,1022.96
2019-02-04T07:14:23.070Z,1022.97
2019-02-04T07:15:23.020Z,1023.00
2019-02-04T07:16:22.969Z,1023.04
2019-02-04T07:17:22.918Z,1023.01
2019-02-04T07:18:22.867Z,1023.05
2019-02-04T07:19:24.632Z,1023.03
2019-02-04T07:20:22.768Z,1023.04
2019-02-04T07:21:22.717Z,1023.04
2019-02-04T07:22:22.726Z,1023.05
2019-02-04T07:23:22.614Z,1023.02
2019-02-04T07:24:22.563Z,1023.05
2019-02-04T07:25:22.518Z,1023.03
2019-02-04T07:26:22.462Z,1023.05
2019-02-04T07:27:22.710Z,1023.05
2019-02-04T07:28:22.364Z,1023.01
2019-02-04T07:29:22.316Z,1023.06
2019-02-04T07:30:22.263Z,1023.05
2019-02-04T07:31:22.210Z,1023.07
2019-02-04T07:32:22.159Z,1023.08
2019-02-04T07:33:22.202Z,1023.10
2019-02-04T07:34:22.159Z,1023.08
2019-02-04T07:35:22.008Z,1023.12
2019-02-04T07:36:22.008Z,1023.14
2019-02-04T07:37:21.908Z,1023.14
2019-02-04T07:38:21.855Z,1023.17
2019-02-04T07:39:21.807Z,1023.24
2019-02-04T07:40:21.755Z,1023.32
2019-02-04T07:41:21.712Z,1023.27
2019-02-04T07:42:21.654Z,1023.23
2019-02-04T07:43:21.604Z,1023.16
2019-02-04T07:44:21.553Z,1023.19
2019-02-04T07:45:21.642Z,1023.25
2019-02-04T07:46:21.451Z,1023.22
2019-02-04T07:47:21.402Z,1023.21
2019-02-04T07:48:21.354Z,1023.17
2019-02-04T07:49:21.419Z,1023.18
2019-02-04T07:50:21.257Z,1023.22
2019-02-04T07:51:21.201Z,1023.21
2019-02-04T07:52:21.171Z,1023.21
2019-02-04T07:53:21.099Z,1023.27
2019-02-04T07:54:21.049Z,1023.26
2019-02-04T07:55:20.999Z,1023.27
2019-02-04T07:56:20.999Z,1023.28
2019-02-04T07:57:20.899Z,1023.28
2019-02-04T07:58:20.849Z,1023.24
2019-02-04T07:59:20.798Z,1023.28
2019-02-04T08:00:20.748Z,1023.27
2019-02-04T08:01:20.698Z,1023.26
2019-02-04T08:02:20.647Z,1023.30
2019-02-04T08:03:20.597Z,1023.29
2019-02-04T08:04:20.547Z,1023.29
2019-02-04T08:05:20.496Z,1023.31
2019-02-04T08:06:20.458Z,1023.31
2019-02-04T08:07:20.396Z,1023.29
2019-02-04T08:08:20.354Z,1023.31
2019-02-04T08:09:20.295Z,1023.30
2019-02-04T08:10:20.244Z,1023.33
2019-02-04T08:11:20.194Z,1023.32
2019-02-04T08:12:20.144Z,1023.29
2019-02-04T08:13:20.094Z,1023.31
2019-02-04T08:14:20.049Z,1023.34
2019-02-04T08:15:19.994Z,1023.35
2019-02-04T08:16:19.943Z,1023.38
2019-02-04T08:17:19.896Z,1023.40
2019-02-04T08:18:19.840Z,1023.41
2019-02-04T08:19:19.791Z,1023.42
2019-02-04T08:20:22.631Z,1023.46
2019-02-04T08:21:19.691Z,1023.47
2019-02-04T08:22:19.640Z,1023.44
2019-02-04T08:23:19.591Z,1023.45
2019-02-04T08:24:19.548Z,1023.47
2019-02-04T08:25:19.490Z,1023.46
2019-02-04T08:26:19.440Z,1023.43
2019-02-04T08:27:19.393Z,1023.46
2019-02-04T08:28:19.393Z,1023.43
2019-02-04T08:29:19.294Z,1023.47
2019-02-04T08:30:19.243Z,1023.48
2019-02-04T08:31:19.192Z,1023.46
2019-02-04T08:32:19.143Z,1023.48
2019-02-04T08:33:19.093Z,1023.48
2019-02-04T08:34:19.042Z,1023.49
2019-02-04T08:35:19.043Z,1023.48
2019-02-04T08:36:18.998Z,1023.49
2019-02-04T08:37:18.894Z,1023.50
2019-02-04T08:38:18.846Z,1023.49
2019-02-04T08:39:18.796Z,1023.52
2019-02-04T08:40:18.748Z,1023.50
2019-02-04T08:41:18.698Z,1023.51
2019-02-04T08:42:18.648Z,1023.51
2019-02-04T08:43:18.601Z,1023.51
2019-02-04T08:44:18.554Z,1023.49
2019-02-04T08:45:18.503Z,1023.53
2019-02-04T08:46:18.453Z,1023.53
2019-02-04T08:47:22.848Z,1023.51
2019-02-04T08:48:18.356Z,1023.49
2019-02-04T08:49:18.308Z,1023.51
2019-02-04T08:50:18.258Z,1023.52
2019-02-04T08:51:18.210Z,1023.53
2019-02-04T08:52:18.159Z,1023.55
2019-02-04T08:53:18.111Z,1023.56
2019-02-04T08:54:18.063Z,1023.57
2019-02-04T08:55:18.013Z,1023.54
2019-02-04T08:56:17.965Z,1023.51
2019-02-04T08:57:17.967Z,1023.52
2019-02-04T08:58:17.866Z,1023.52
2019-02-04T08:59:17.817Z,1023.53
2019-02-04T09:00:17.769Z,1023.57
2019-02-04T09:01:17.720Z,1023.50
2019-02-04T09:02:17.671Z,1023.49
2019-02-04T09:03:17.622Z,1023.50
2019-02-04T09:04:17.572Z,1023.45
2019-02-04T09:05:17.525Z,1023.49
2019-02-04T09:06:17.474Z,1023.49
2019-02-04T09:07:17.427Z,1023.54
2019-02-04T09:08:17.378Z,1023.54
2019-02-04T09:09:17.330Z,1023.53
2019-02-04T09:10:17.278Z,1023.53
2019-02-04T09:11:17.229Z,1023.55
2019-02-04T09:12:17.181Z,1023.56
2019-02-04T09:13:17.133Z,1023.55
2019-02-04T09:14:17.183Z,1023.58
2019-02-04T09:15:17.034Z,1023.61
2019-02-04T09:16:16.984Z,1023.57
2019-02-04T09:17:16.985Z,1023.56
2019-02-04T09:18:16.886Z,1023.51
2019-02-04T09:19:16.837Z,1023.53
2019-02-04T09:20:16.787Z,1023.55
2019-02-04T09:21:16.739Z,1023.56
2019-02-04T09:22:16.689Z,1023.57
2019-02-04T09:23:16.640Z,1023.57
2019-02-04T09:24:16.591Z,1023.61
2019-02-04T09:25:16.542Z,1023.60
2019-02-04T09:26:16.492Z,1023.61
2019-02-04T09:27:16.442Z,1023.53
2019-02-04T09:28:16.394Z,1023.58
2019-02-04T09:29:16.344Z,1023.55
2019-02-04T09:30:16.295Z,1023.51
2019-02-04T09:31:16.245Z,1023.48
2019-02-04T09:32:16.196Z,1023.45
2019-02-04T09:33:16.150Z,1023.45
2019-02-04T09:34:16.097Z,1023.48
2019-02-04T09:35:16.047Z,1023.50
2019-02-04T09:36:15.999Z,1023.52
2019-02-04T09:37:16.000Z,1023.55
2019-02-04T09:38:15.900Z,1023.58
2019-02-04T09:39:15.850Z,1023.59
2019-02-04T09:40:15.801Z,1023.57
2019-02-04T09:41:15.753Z,1023.55
2019-02-04T09:42:15.702Z,1023.52
2019-02-04T09:43:15.653Z,1023.55
2019-02-04T09:44:15.603Z,1023.53
2019-02-04T09:45:15.554Z,1023.59
2019-02-04T09:46:15.508Z,1023.54
2019-02-04T09:47:15.455Z,1023.53
2019-02-04T09:48:15.405Z,1023.45
2019-02-04T09:49:15.357Z,1023.47
2019-02-04T09:50:21.770Z,1023.46
2019-02-04T09:51:15.259Z,1023.49
2019-02-04T09:52:15.207Z,1023.51
2019-02-04T09:53:15.159Z,1023.52
2019-02-04T09:54:15.109Z,1023.52
2019-02-04T09:55:15.060Z,1023.52
2019-02-04T09:56:15.021Z,1023.49
2019-02-04T09:57:15.011Z,1023.52
2019-02-04T09:58:14.911Z,1023.52
2019-02-04T09:59:14.861Z,1023.49
2019-02-04T10:00:14.814Z,1023.52
2019-02-04T10:01:14.763Z,1023.52
2019-02-04T10:02:14.713Z,1023.50
2019-02-04T10:03:14.670Z,1023.50
2019-02-04T10:04:14.616Z,1023.49
2019-02-04T10:05:14.567Z,1023.56
2019-02-04T10:06:14.515Z,1023.54
2019-02-04T10:07:14.467Z,1023.54
2019-02-04T10:08:14.418Z,1023.53
2019-02-04T10:09:14.370Z,1023.50
2019-02-04T10:10:14.319Z,1023.50
2019-02-04T10:11:14.269Z,1023.49
2019-02-04T10:12:14.219Z,1023.47
2019-02-04T10:13:14.173Z,1023.50
2019-02-04T10:14:14.121Z,1023.51
2019-02-04T10:15:14.101Z,1023.50
2019-02-04T10:16:14.023Z,1023.47
2019-02-04T10:17:13.973Z,1023.48
2019-02-04T10:18:13.970Z,1023.48
2019-02-04T10:19:13.916Z,1023.49
2019-02-04T10:20:13.838Z,1023.51
2019-02-04T10:21:13.777Z,1023.48
2019-02-04T10:22:13.726Z,1023.49
2019-02-04T10:23:13.713Z,1023.49
2019-02-04T10:24:13.669Z,1023.51
2019-02-04T10:25:13.581Z,1023.48
2019-02-04T10:26:13.544Z,1023.55
2019-02-04T10:27:13.496Z,1023.51
2019-02-04T10:28:13.435Z,1023.50
2019-02-04T10:29:13.386Z,1023.50
2019-02-04T10:30:13.378Z,1023.51
2019-02-04T10:31:13.300Z,1023.47
2019-02-04T10:32:13.271Z,1023.47
2019-02-04T10:33:13.210Z,1023.50
2019-02-04T10:34:13.133Z,1023.48
2019-02-04T10:35:16.914Z,1023.48
2019-02-04T10:36:13.046Z,1023.49
2019-02-04T10:37:13.024Z,1023.48
2019-02-04T10:38:13.022Z,1023.50
2019-02-04T10:39:12.887Z,1023.50
2019-02-04T10:40:12.878Z,1023.50
2019-02-04T10:41:12.829Z,1023.51
2019-02-04T10:42:12.736Z,1023.51
2019-02-04T10:43:12.710Z,1023.51
2019-02-04T10:44:12.661Z,1023.50
2019-02-04T10:45:12.627Z,1023.51
2019-02-04T10:46:12.576Z,1023.51
2019-02-04T10:47:12.501Z,1023.47
2019-02-04T10:48:12.488Z,1023.48
2019-02-04T10:49:12.405Z,1023.45
2019-02-04T10:50:12.339Z,1023.41
2019-02-04T10:51:12.365Z,1023.37
2019-02-04T10:52:12.271Z,1023.41
2019-02-04T10:53:12.198Z,1023.39
2019-02-04T10:54:12.177Z,1023.34
2019-02-04T10:55:12.101Z,1023.38
2019-02-04T10:56:12.044Z,1023.33
2019-02-04T10:57:11.995Z,1023.36
2019-02-04T10:58:11.994Z,1023.38
2019-02-04T10:59:11.895Z,1023.34
2019-02-04T11:00:11.865Z,1023.38
2019-02-04T11:01:11.832Z,1023.42
2019-02-04T11:02:11.746Z,1023.39
2019-02-04T11:03:11.866Z,1023.44
2019-02-04T11:04:11.678Z,1023.44
2019-02-04T11:05:11.604Z,1023.47
2019-02-04T11:06:11.592Z,1023.41
2019-02-04T11:07:11.556Z,1023.42
2019-02-04T11:08:11.456Z,1023.41
2019-02-04T11:09:11.403Z,1023.43
2019-02-04T11:10:11.349Z,1023.43
2019-02-04T11:11:11.309Z,1023.43
2019-02-04T11:12:11.276Z,1023.37
2019-02-04T11:13:11.201Z,1023.38
2019-02-04T11:14:11.174Z,1023.35
2019-02-04T11:15:11.113Z,1023.31
2019-02-04T11:16:11.052Z,1023.31
2019-02-04T11:17:11.026Z,1023.33
2019-02-04T11:18:10.992Z,1023.37
2019-02-04T11:19:10.902Z,1023.29
2019-02-04T11:20:10.867Z,1023.30
2019-02-04T11:21:10.804Z,1023.29
2019-02-04T11:22:10.755Z,1023.28
2019-02-04T11:23:10.852Z,1023.29
2019-02-04T11:24:10.675Z,1023.29
2019-02-04T11:25:10.604Z,1023.31
2019-02-04T11:26:10.595Z,1023.29
2019-02-04T11:27:10.520Z,1023.33
2019-02-04T11:28:10.508Z,1023.33
2019-02-04T11:29:10.431Z,1023.35
2019-02-04T11:30:10.363Z,1023.34
2019-02-04T11:31:10.341Z,1023.36
2019-02-04T11:32:10.264Z,1023.38
2019-02-04T11:33:10.287Z,1023.33
2019-02-04T11:34:10.181Z,1023.37
2019-02-04T11:35:10.112Z,1023.40
2019-02-04T11:36:10.113Z,1023.35
2019-02-04T11:37:10.110Z,1023.38
2019-02-04T11:38:09.964Z,1023.39
2019-02-04T11:39:10.007Z,1023.41
2019-02-04T11:40:09.867Z,1023.39
2019-02-04T11:41:09.818Z,1023.42
2019-02-04T11:42:09.793Z,1023.42
2019-02-04T11:43:09.723Z,1023.40
2019-02-04T11:44:09.769Z,1023.40
2019-02-04T11:45:09.674Z,1023.44
2019-02-04T11:46:09.583Z,1023.39
2019-02-04T11:47:09.536Z,1023.38
2019-02-04T11:48:09.495Z,1023.41
2019-02-04T11:49:09.425Z,1023.42
2019-02-04T11:50:09.375Z,1023.43
2019-02-04T11:51:10.151Z,1023.42
2019-02-04T11:52:09.279Z,1023.36
2019-02-04T11:53:09.229Z,1023.39
2019-02-04T11:54:09.189Z,1023.37
2019-02-04T11:55:09.132Z,1023.40
2019-02-04T11:56:09.084Z,1023.36
2019-02-04T11:57:09.034Z,1023.33
2019-02-04T11:58:09.037Z,1023.33
2019-02-04T11:59:08.935Z,1023.35
2019-02-04T12:00:08.888Z,1023.35
2019-02-04T12:01:08.841Z,1023.27
2019-02-04T12:02:08.803Z,1023.28
2019-02-04T12:03:08.742Z,1023.26
2019-02-04T12:04:08.691Z,1023.29
2019-02-04T12:05:08.644Z,1023.31